createdAt,value
2018-07-06T00:00:01.295Z,99179.22
2018-07-06T00:02:41.473Z,99187.09
2018-07-06T00:05:21.504Z,99181.38
2018-07-06T00:08:01.867Z,99189.59
2018-07-06T00:10:41.859Z,99191.09
2018-07-06T00:13:22.418Z,99185.34
2018-07-06T00:16:02.460Z,99181.64
2018-07-06T00:18:42.944Z,99187.31
2018-07-06T00:21:23.014Z,99182.70
2018-07-06T00:26:36.401Z,99185.84
2018-07-06T00:29:16.329Z,99185.99
2018-07-06T00:31:56.149Z,99183.09
2018-07-06T00:34:36.400Z,99185.94
2018-07-06T00:37:16.390Z,99188.30
2018-07-06T00:39:56.581Z,99190.98
2018-07-06T00:42:36.751Z,99190.64
2018-07-06T00:45:16.765Z,99189.47
2018-07-06T00:47:56.836Z,99186.11
2018-07-06T00:50:37.220Z,99188.91
2018-07-06T00:53:17.283Z,99195.45
2018-07-06T00:55:57.536Z,99183.62
2018-07-06T00:58:39.326Z,99186.09
2018-07-06T01:01:19.683Z,99183.51
2018-07-06T01:03:59.652Z,99182.83
2018-07-06T01:06:40.097Z,99180.07
2018-07-06T01:09:19.980Z,99177.67
2018-07-06T01:12:04.525Z,99180.52
2018-07-06T01:14:44.551Z,99184.39
2018-07-06T01:17:24.962Z,99182.89
2018-07-06T01:20:05.085Z,99173.91
2018-07-06T01:22:45.569Z,99173.91
2018-07-06T01:25:25.624Z,99178.94
2018-07-06T01:28:05.388Z,99172.14
2018-07-06T01:30:45.417Z,99170.55
2018-07-06T01:33:25.467Z,99174.88
2018-07-06T01:36:05.413Z,99176.35
2018-07-06T01:38:45.630Z,99167.95
2018-07-06T01:41:25.408Z,99172.13
2018-07-06T01:44:05.677Z,99174.98
2018-07-06T01:46:46.885Z,99170.72
2018-07-06T01:49:27.141Z,99173.88
2018-07-06T01:52:07.109Z,99175.41
2018-07-06T01:54:47.265Z,99174.80
2018-07-06T01:57:27.148Z,99176.48
2018-07-06T02:00:07.649Z,99175.48
2018-07-06T02:02:47.645Z,99174.12
2018-07-06T02:05:27.726Z,99172.75
2018-07-06T02:08:07.639Z,99178.14
2018-07-06T02:10:47.875Z,99172.11
2018-07-06T02:13:27.862Z,99170.86
2018-07-06T02:16:08.183Z,99161.66
2018-07-06T02:18:48.192Z,99163.34
2018-07-06T02:21:28.460Z,99163.84
2018-07-06T02:24:08.258Z,99164.27
2018-07-06T02:26:48.277Z,99170.66
2018-07-06T02:29:28.058Z,99173.35
2018-07-06T02:32:08.485Z,99172.23
2018-07-06T02:34:48.508Z,99170.42
2018-07-06T02:37:28.991Z,99164.19
2018-07-06T02:40:08.893Z,99165.55
2018-07-06T02:42:50.113Z,99164.56
2018-07-06T02:45:30.112Z,99162.37
2018-07-06T02:48:10.422Z,99162.84
2018-07-06T02:50:50.416Z,99168.37
2018-07-06T02:53:30.382Z,99163.94
2018-07-06T02:56:10.270Z,99162.78
2018-07-06T02:58:50.376Z,99170.42
2018-07-06T03:01:30.308Z,99173.95
2018-07-06T03:04:10.680Z,99172.05
2018-07-06T03:06:50.542Z,99175.29
2018-07-06T03:09:30.921Z,99184.34
2018-07-06T03:12:10.902Z,99178.25
2018-07-06T03:14:51.089Z,99175.48
2018-07-06T03:17:31.158Z,99180.25
2018-07-06T03:20:11.083Z,99180.67
2018-07-06T03:22:51.120Z,99187.98
2018-07-06T03:25:31.071Z,99186.28
2018-07-06T03:28:10.874Z,99184.17
2018-07-06T03:30:50.964Z,99185.99
2018-07-06T03:33:30.828Z,99187.77
2018-07-06T03:36:11.057Z,99190.92
2018-07-06T03:38:50.941Z,99183.43
2018-07-06T03:41:31.383Z,99183.66
2018-07-06T03:44:11.176Z,99192.66
2018-07-06T03:46:52.065Z,99185.77
2018-07-06T03:49:31.840Z,99185.84
2018-07-06T03:52:12.106Z,99188.91
2018-07-06T03:54:55.590Z,99186.89
2018-07-06T03:57:35.856Z,99193.34
2018-07-06T04:00:15.911Z,99189.11
2018-07-06T04:02:55.842Z,99184.96
2018-07-06T04:05:35.591Z,99194.77
2018-07-06T04:08:15.507Z,99194.47
2018-07-06T04:10:55.336Z,99194.30
2018-07-06T04:13:35.464Z,99193.48
2018-07-06T04:16:15.457Z,99203.38
2018-07-06T04:19:11.092Z,99189.02
2018-07-06T04:21:51.369Z,99190.48
2018-07-06T04:24:32.259Z,99195.66
2018-07-06T04:27:12.893Z,99188.43
2018-07-06T04:29:52.973Z,99195.80
2018-07-06T04:32:33.316Z,99198.47
2018-07-06T04:35:14.078Z,99190.56
2018-07-06T04:37:53.851Z,99195.05
2018-07-06T04:40:34.211Z,99196.44
2018-07-06T04:43:14.173Z,99203.75
2018-07-06T04:45:54.701Z,99204.95
2018-07-06T04:48:34.627Z,99204.16
2018-07-06T04:51:15.033Z,99204.38
2018-07-06T04:53:55.062Z,99207.23
2018-07-06T04:56:35.116Z,99199.88
2018-07-06T04:59:14.878Z,99200.03
2018-07-06T05:01:54.939Z,99199.29
2018-07-06T05:04:34.785Z,99191.44
2018-07-06T05:07:14.711Z,99200.19
2018-07-06T05:09:54.841Z,99197.34
2018-07-06T05:12:34.762Z,99194.83
2018-07-06T05:15:14.558Z,99199.40
2018-07-06T05:17:54.886Z,99197.31
2018-07-06T05:20:34.799Z,99201.74
2018-07-06T05:23:14.613Z,99200.22
2018-07-06T05:25:54.666Z,99205.34
2018-07-06T05:28:34.768Z,99198.94
2018-07-06T05:31:14.687Z,99205.20
2018-07-06T05:33:54.541Z,99208.19
2018-07-06T05:36:34.481Z,99205.42
2018-07-06T05:39:14.686Z,99202.33
2018-07-06T05:41:54.702Z,99201.84
2018-07-06T05:44:34.594Z,99209.86
2018-07-06T05:47:14.492Z,99217.17
2018-07-06T05:49:54.413Z,99208.69
2018-07-06T05:52:34.301Z,99211.64
2018-07-06T05:55:14.361Z,99203.80
2018-07-06T05:57:54.177Z,99216.01
2018-07-06T06:00:34.617Z,99214.47
2018-07-06T06:03:14.555Z,99210.75
2018-07-06T06:05:54.633Z,99212.84
2018-07-06T06:08:22.076Z,99207.55
2018-07-06T06:10:51.073Z,99209.37
2018-07-06T06:13:20.482Z,99209.39
2018-07-06T06:15:49.529Z,99210.44
2018-07-06T06:18:18.580Z,99204.89
2018-07-06T06:20:47.862Z,99202.31
2018-07-06T06:23:17.211Z,99208.56
2018-07-06T06:25:46.296Z,99207.19
2018-07-06T06:28:15.659Z,99198.04
2018-07-06T06:30:44.762Z,99200.55
2018-07-06T06:33:13.961Z,99196.31
2018-07-06T06:35:43.524Z,99197.15
2018-07-06T06:38:12.551Z,99197.58
2018-07-06T06:40:41.657Z,99188.58
2018-07-06T06:43:10.763Z,99191.63
2018-07-06T06:45:39.754Z,99194.89
2018-07-06T06:48:08.909Z,99193.87
2018-07-06T06:50:38.169Z,99195.58
2018-07-06T06:53:07.365Z,99196.13
2018-07-06T06:55:36.456Z,99188.65
2018-07-06T06:58:06.028Z,99188.65
2018-07-06T07:00:36.132Z,99185.91
2018-07-06T07:03:05.252Z,99184.96
2018-07-06T07:05:34.901Z,99182.22
2018-07-06T07:08:04.086Z,99179.77
2018-07-06T07:10:33.367Z,99176.73
2018-07-06T07:13:03.340Z,99176.50
2018-07-06T07:15:32.440Z,99175.94
2018-07-06T07:18:01.432Z,99176.72
2018-07-06T07:20:30.541Z,99178.23
2018-07-06T07:22:59.602Z,99174.80
2018-07-06T07:25:28.625Z,99176.76
2018-07-06T07:27:58.321Z,99175.44
2018-07-06T07:30:27.511Z,99177.59
2018-07-06T07:32:56.431Z,99177.46
2018-07-06T07:35:25.737Z,99177.34
2018-07-06T07:37:55.087Z,99171.19
2018-07-06T07:40:24.231Z,99170.55
2018-07-06T07:42:53.780Z,99166.89
2018-07-06T07:45:22.792Z,99170.70
2018-07-06T07:47:51.948Z,99166.23
2018-07-06T07:50:21.442Z,99169.57
2018-07-06T07:55:03.872Z,99171.70
2018-07-06T07:57:32.911Z,99167.39
2018-07-06T08:00:01.953Z,99173.00
2018-07-06T08:02:31.133Z,99166.59
2018-07-06T08:05:00.209Z,99169.48
2018-07-06T08:07:29.305Z,99168.25
2018-07-06T08:09:58.525Z,99159.84
2018-07-06T08:12:27.856Z,99164.47
2018-07-06T08:14:57.047Z,99159.55
2018-07-06T08:17:26.331Z,99149.92
2018-07-06T08:19:55.624Z,99160.58
2018-07-06T08:22:24.474Z,99154.10
2018-07-06T08:24:53.657Z,99156.94
2018-07-06T08:27:23.258Z,99153.04
2018-07-06T08:29:52.317Z,99157.14
2018-07-06T08:32:21.397Z,99147.63
2018-07-06T08:35:01.341Z,99149.63
2018-07-06T08:37:46.390Z,99141.55
2018-07-06T08:40:16.211Z,99145.33
2018-07-06T08:42:46.531Z,99137.58
2018-07-06T08:45:16.438Z,99145.71
2018-07-06T08:47:45.919Z,99148.17
2018-07-06T08:50:15.061Z,99142.32
2018-07-06T08:52:45.749Z,99140.30
2018-07-06T08:55:14.898Z,99137.41
2018-07-06T08:57:45.009Z,99138.20
2018-07-06T09:00:14.720Z,99138.20
2018-07-06T09:02:44.062Z,99131.56
2018-07-06T09:05:13.782Z,99128.42
2018-07-06T09:07:43.356Z,99129.88
2018-07-06T09:10:12.471Z,99131.45
2018-07-06T09:12:41.851Z,99141.22
2018-07-06T09:15:11.476Z,99128.09
2018-07-06T09:17:40.335Z,99129.98
2018-07-06T09:20:09.481Z,99132.06
2018-07-06T09:22:38.966Z,99127.73
2018-07-06T09:25:08.532Z,99133.34
2018-07-06T09:27:37.627Z,99128.77
2018-07-06T09:30:07.278Z,99132.53
2018-07-06T09:32:36.242Z,99129.70
2018-07-06T09:35:05.469Z,99121.02
2018-07-06T09:37:34.967Z,99123.80
2018-07-06T09:40:03.986Z,99120.27
2018-07-06T09:42:33.082Z,99124.42
2018-07-06T09:45:02.214Z,99117.13
2018-07-06T09:47:31.207Z,99117.85
2018-07-06T09:50:00.294Z,99120.66
2018-07-06T09:52:29.524Z,99115.95
2018-07-06T09:54:58.641Z,99116.53
2018-07-06T09:57:27.856Z,99115.53
2018-07-06T09:59:57.335Z,99114.33
2018-07-06T10:02:26.428Z,99109.66
2018-07-06T10:04:55.540Z,99099.97
2018-07-06T10:07:24.611Z,99101.48
2018-07-06T10:09:53.763Z,99096.22
2018-07-06T10:12:23.099Z,99093.23
2018-07-06T10:14:52.097Z,99087.96
2018-07-06T10:17:21.096Z,99089.36
2018-07-06T10:19:50.580Z,99085.12
2018-07-06T10:22:19.591Z,99083.08
2018-07-06T10:24:48.608Z,99084.09
2018-07-06T10:27:18.311Z,99081.56
2018-07-06T10:29:51.911Z,99087.27
2018-07-06T10:32:28.021Z,99077.30
2018-07-06T10:34:58.898Z,99075.84
2018-07-06T10:37:28.870Z,99075.28
2018-07-06T10:39:57.940Z,99069.75
2018-07-06T10:42:27.085Z,99069.92
2018-07-06T10:44:56.186Z,99063.24
2018-07-06T10:47:25.200Z,99059.19
2018-07-06T10:49:54.296Z,99062.42
2018-07-06T10:52:23.569Z,99054.76
2018-07-06T10:54:53.612Z,99057.20
2018-07-06T10:57:24.166Z,99056.89
2018-07-06T10:59:53.238Z,99063.48
2018-07-06T11:02:22.267Z,99058.67
2018-07-06T11:04:51.636Z,99050.75
2018-07-06T11:07:20.522Z,99055.36
2018-07-06T11:09:49.491Z,99049.06
2018-07-06T11:12:18.907Z,99041.86
2018-07-06T11:14:47.942Z,99045.02
2018-07-06T11:17:16.997Z,99038.45
2018-07-06T11:19:46.605Z,99035.62
2018-07-06T11:22:15.486Z,99034.48
2018-07-06T11:24:44.367Z,99031.62
2018-07-06T11:27:13.417Z,99029.79
2018-07-06T11:29:42.619Z,99032.37
2018-07-06T11:32:11.787Z,99026.94
2018-07-06T11:34:40.949Z,99023.33
2018-07-06T11:37:09.885Z,99013.16
2018-07-06T11:39:38.964Z,99013.67
2018-07-06T11:42:08.463Z,99007.31
2018-07-06T11:44:37.550Z,99011.80
2018-07-06T11:47:06.519Z,99015.83
2018-07-06T11:49:35.711Z,98999.84
2018-07-06T11:52:04.767Z,99005.95
2018-07-06T11:54:33.750Z,99009.55
2018-07-06T11:57:02.883Z,99011.95
2018-07-06T11:59:32.027Z,99007.17
2018-07-06T12:02:01.188Z,99001.94
2018-07-06T12:04:30.285Z,99003.24
2018-07-06T12:06:59.230Z,99001.53
2018-07-06T12:09:28.380Z,98994.59
2018-07-06T12:11:57.513Z,98997.58
2018-07-06T12:14:26.601Z,98988.33
2018-07-06T12:16:55.583Z,98990.29
2018-07-06T12:19:25.054Z,98987.78
2018-07-06T12:21:53.969Z,98981.69
2018-07-06T12:24:23.231Z,98979.78
2018-07-06T12:26:52.356Z,98964.74
2018-07-06T12:29:21.249Z,98975.85
2018-07-06T12:31:50.479Z,98971.74
2018-07-06T12:34:19.551Z,98974.71
2018-07-06T12:36:48.600Z,98964.52
2018-07-06T12:39:17.705Z,98974.58
2018-07-06T12:41:47.828Z,98971.23
2018-07-06T12:44:16.908Z,98968.97
2018-07-06T12:46:45.828Z,98969.17
2018-07-06T12:49:14.991Z,98966.33
2018-07-06T12:51:43.921Z,98960.50
2018-07-06T12:54:13.018Z,98961.09
2018-07-06T12:56:42.652Z,98965.05
2018-07-06T12:59:11.635Z,98964.82
2018-07-06T13:01:40.680Z,98960.86
2018-07-06T13:04:10.266Z,98955.27
2018-07-06T13:06:39.410Z,98959.00
2018-07-06T13:09:08.805Z,98959.33
2018-07-06T13:11:38.311Z,98959.25
2018-07-06T13:14:07.534Z,98958.09
2018-07-06T13:16:36.620Z,98960.00
2018-07-06T13:19:05.869Z,98954.73
2018-07-06T13:21:34.896Z,98954.27
2018-07-06T13:24:03.954Z,98954.56
2018-07-06T13:26:33.801Z,98943.98
2018-07-06T13:29:02.809Z,98945.00
2018-07-06T13:31:31.969Z,98945.30
2018-07-06T13:34:01.019Z,98938.33
2018-07-06T13:36:30.118Z,98934.81
2018-07-06T13:38:59.230Z,98929.06
2018-07-06T13:41:28.944Z,98924.93
2018-07-06T13:43:58.010Z,98920.36
2018-07-06T13:46:26.964Z,98921.84
2018-07-06T13:48:56.471Z,98926.36
2018-07-06T13:51:25.584Z,98914.86
2018-07-06T13:53:54.504Z,98918.97
2018-07-06T13:56:23.800Z,98920.13
2018-07-06T13:58:52.854Z,98921.66
2018-07-06T14:01:21.780Z,98919.25
2018-07-06T14:03:51.249Z,98916.98
2018-07-06T14:06:20.201Z,98922.15
2018-07-06T14:08:49.296Z,98920.99
2018-07-06T14:11:18.722Z,98915.16
2018-07-06T14:13:47.700Z,98917.84
2018-07-06T14:16:16.852Z,98908.41
2018-07-06T14:18:46.109Z,98908.22
2018-07-06T14:21:15.262Z,98908.88
2018-07-06T14:23:44.334Z,98909.86
2018-07-06T14:26:14.287Z,98916.42
2018-07-06T14:28:43.495Z,98917.56
2018-07-06T14:31:12.543Z,98919.56
2018-07-06T14:33:41.644Z,98917.91
2018-07-06T14:36:10.898Z,98913.66
2018-07-06T14:38:40.030Z,98917.96
2018-07-06T14:41:09.538Z,98912.05
2018-07-06T14:43:38.568Z,98915.88
2018-07-06T14:46:07.536Z,98909.38
2018-07-06T14:57:26.070Z,98911.17
2018-07-06T15:02:57.727Z,98921.03
2018-07-06T15:05:27.375Z,98925.13
2018-07-06T15:08:02.558Z,98918.30
2018-07-06T15:10:32.413Z,98914.39
2018-07-06T15:13:01.915Z,98908.63
2018-07-06T15:15:31.728Z,98910.56
2018-07-06T15:18:01.471Z,98908.20
2018-07-06T15:20:30.483Z,98903.92
2018-07-06T15:22:59.904Z,98901.30
2018-07-06T15:25:28.959Z,98897.16
2018-07-06T15:27:58.058Z,98890.77
2018-07-06T15:30:27.413Z,98890.06
2018-07-06T15:32:56.701Z,98889.52
2018-07-06T15:35:25.664Z,98878.34
2018-07-06T15:37:54.861Z,98883.59
2018-07-06T15:40:23.925Z,98899.21
2018-07-06T15:42:53.047Z,98902.23
2018-07-06T15:45:22.523Z,98894.58
2018-07-06T15:47:51.675Z,98883.42
2018-07-06T15:50:20.476Z,98891.69
2018-07-06T15:52:49.919Z,98905.16
2018-07-06T15:55:18.851Z,98908.78
2018-07-06T15:57:47.789Z,98901.52
2018-07-06T16:00:17.069Z,98906.34
2018-07-06T16:02:46.050Z,98905.73
2018-07-06T16:05:15.200Z,98903.73
2018-07-06T16:07:44.114Z,98912.64
2018-07-06T16:10:13.230Z,98918.59
2018-07-06T16:12:42.921Z,98920.92
2018-07-06T16:15:12.555Z,98917.80
2018-07-06T16:17:41.702Z,98921.52
2018-07-06T16:20:10.814Z,98915.75
2018-07-06T16:22:40.397Z,98913.30
2018-07-06T16:25:09.399Z,98918.62
2018-07-06T16:27:38.367Z,98930.41
2018-07-06T16:30:07.868Z,98939.38
2018-07-06T16:32:36.864Z,98945.25
2018-07-06T16:35:05.804Z,98936.47
2018-07-06T16:37:34.789Z,98942.97
2018-07-06T16:40:03.834Z,98942.82
2018-07-06T16:42:32.828Z,98943.67
2018-07-06T16:45:01.739Z,98949.45
2018-07-06T16:47:30.554Z,98949.91
2018-07-06T16:50:00.545Z,98950.92
2018-07-06T16:52:30.097Z,98950.26
2018-07-06T16:54:59.147Z,98955.25
2018-07-06T16:57:28.200Z,98948.99
2018-07-06T16:59:57.769Z,98955.30
2018-07-06T17:02:26.754Z,98950.37
2018-07-06T17:04:55.695Z,98956.57
2018-07-06T17:07:25.075Z,98953.80
2018-07-06T17:09:54.046Z,98948.44
2018-07-06T17:12:23.026Z,98948.87
2018-07-06T17:14:53.000Z,98945.11
2018-07-06T17:17:22.102Z,98949.18
2018-07-06T17:19:51.068Z,98943.30
2018-07-06T17:22:20.123Z,98940.19
2018-07-06T17:24:48.952Z,98931.98
2018-07-06T17:27:17.984Z,98931.63
2018-07-06T17:29:47.180Z,98921.70
2018-07-06T17:32:16.122Z,98914.20
2018-07-06T17:34:45.177Z,98899.51
2018-07-06T17:37:14.233Z,98899.80
2018-07-06T17:39:43.298Z,98890.37
2018-07-06T17:42:12.379Z,98901.64
2018-07-06T17:44:41.793Z,98902.67
2018-07-06T17:47:10.738Z,98895.82
2018-07-06T17:49:39.687Z,98900.76
2018-07-06T17:52:08.808Z,98901.45
2018-07-06T17:54:37.688Z,98903.82
2018-07-06T17:57:07.251Z,98913.42
2018-07-06T17:59:36.353Z,98919.39
2018-07-06T18:02:05.391Z,98923.52
2018-07-06T18:04:35.422Z,98933.87
2018-07-06T18:07:04.763Z,98939.67
2018-07-06T18:09:33.670Z,98943.67
2018-07-06T18:12:02.655Z,98961.05
2018-07-06T18:14:31.729Z,98961.48
2018-07-06T18:17:00.682Z,98966.06
2018-07-06T18:19:30.372Z,98973.49
2018-07-06T18:21:59.849Z,98970.88
2018-07-06T18:24:30.779Z,98982.80
2018-07-06T18:27:00.128Z,98986.98
2018-07-06T18:29:29.785Z,98993.62
2018-07-06T18:32:00.364Z,99000.80
2018-07-06T18:34:30.127Z,99006.75
2018-07-06T18:36:59.273Z,99017.42
2018-07-06T18:39:29.546Z,99021.29
2018-07-06T18:41:59.792Z,99027.88
2018-07-06T18:44:29.008Z,99030.88
2018-07-06T18:46:58.135Z,99050.79
2018-07-06T18:49:28.199Z,99048.84
2018-07-06T18:51:57.304Z,99049.88
2018-07-06T18:54:26.811Z,99040.76
2018-07-06T18:56:56.148Z,99038.77
2018-07-06T18:59:26.193Z,99042.19
2018-07-06T19:01:55.205Z,99045.31
2018-07-06T19:04:24.632Z,99047.39
2018-07-06T19:06:53.976Z,99055.73
2018-07-06T19:09:22.884Z,99055.20
2018-07-06T19:11:51.854Z,99051.34
2018-07-06T19:14:20.855Z,99040.22
2018-07-06T19:16:50.846Z,99037.24
2018-07-06T19:19:19.844Z,99042.57
2018-07-06T19:21:48.669Z,99047.64
2018-07-06T19:24:17.550Z,99045.89
2018-07-06T19:26:46.893Z,99043.00
2018-07-06T19:29:15.888Z,99041.37
2018-07-06T19:31:44.820Z,99046.98
2018-07-06T19:34:13.729Z,99043.08
2018-07-06T19:36:42.722Z,99036.62
2018-07-06T19:39:11.724Z,99039.44
2018-07-06T19:41:41.018Z,99033.40
2018-07-06T19:44:10.148Z,99036.47
2018-07-06T19:46:39.046Z,99036.83
2018-07-06T19:49:08.506Z,99032.77
2018-07-06T19:51:37.422Z,99033.02
2018-07-06T19:54:06.611Z,99029.88
2018-07-06T19:56:35.973Z,99032.39
2018-07-06T19:59:05.245Z,99034.92
2018-07-06T20:01:34.231Z,99032.65
2018-07-06T20:04:03.794Z,99035.27
2018-07-06T20:06:32.908Z,99041.17
2018-07-06T20:09:02.041Z,99038.73
2018-07-06T20:11:31.559Z,99037.42
2018-07-06T20:14:00.646Z,99039.67
2018-07-06T20:16:29.591Z,99042.28
2018-07-06T20:18:59.080Z,99046.86
2018-07-06T20:21:28.201Z,99047.21
2018-07-06T20:23:57.298Z,99046.66
2018-07-06T20:26:26.972Z,99054.54
2018-07-06T20:28:56.264Z,99057.63
2018-07-06T20:31:25.248Z,99068.12
2018-07-06T20:33:54.687Z,99074.04
2018-07-06T20:36:23.890Z,99068.12
2018-07-06T20:38:53.039Z,99067.98
2018-07-06T20:41:22.768Z,99071.61
2018-07-06T20:43:52.894Z,99066.15
2018-07-06T20:46:23.188Z,99061.91
2018-07-06T20:48:52.401Z,99068.20
2018-07-06T20:51:21.480Z,99070.85
2018-07-06T20:53:51.304Z,99077.28
2018-07-06T20:56:20.610Z,99080.95
2018-07-06T20:58:50.089Z,99083.33
2018-07-06T21:01:20.518Z,99087.80
2018-07-06T21:03:49.858Z,99093.39
2018-07-06T21:06:19.364Z,99093.44
2018-07-06T21:08:48.804Z,99092.80
2018-07-06T21:11:18.130Z,99093.14
2018-07-06T21:13:50.956Z,99100.64
2018-07-06T21:16:20.186Z,99088.16
2018-07-06T21:18:49.299Z,99086.95
2018-07-06T21:21:19.143Z,99088.14
2018-07-06T21:23:48.700Z,99084.95
2018-07-06T21:26:17.743Z,99092.72
2018-07-06T21:28:47.106Z,99094.76
2018-07-06T21:31:16.323Z,99096.02
2018-07-06T21:33:45.552Z,99097.58
2018-07-06T21:36:14.603Z,99091.20
2018-07-06T21:38:43.535Z,99092.42
2018-07-06T21:41:12.583Z,99101.78
2018-07-06T21:43:42.150Z,99100.48
2018-07-06T21:46:11.342Z,99098.70
2018-07-06T21:48:40.506Z,99110.68
2018-07-06T21:51:10.030Z,99108.02
2018-07-06T21:53:40.198Z,99093.21
2018-07-06T21:56:09.410Z,99100.80
2018-07-06T21:58:43.325Z,99103.83
2018-07-06T22:01:12.597Z,99112.44
2018-07-06T22:03:42.081Z,99104.16
2018-07-06T22:06:15.157Z,99102.34
2018-07-06T22:08:44.268Z,99103.33
2018-07-06T22:11:23.931Z,99102.34
2018-07-06T22:13:54.102Z,99095.82
2018-07-06T22:16:23.183Z,99097.53
2018-07-06T22:18:52.370Z,99097.86
2018-07-06T22:21:27.193Z,99101.25
2018-07-06T22:23:57.891Z,99098.92
2018-07-06T22:26:30.318Z,99100.45
2018-07-06T22:28:59.567Z,99096.61
2018-07-06T22:31:28.646Z,99099.82
2018-07-06T22:34:04.147Z,99096.97
2018-07-06T22:36:36.623Z,99095.66
2018-07-06T22:39:06.990Z,99097.69
2018-07-06T22:41:42.905Z,99097.74
2018-07-06T22:44:12.823Z,99095.08
2018-07-06T22:46:47.426Z,99094.71
2018-07-06T22:49:17.124Z,99092.52
2018-07-06T22:54:45.689Z,99086.64
2018-07-06T22:57:14.849Z,99084.13
2018-07-06T22:59:49.944Z,99088.16
2018-07-06T23:02:24.698Z,99089.52
2018-07-06T23:07:37.163Z,99078.23
2018-07-06T23:10:07.008Z,99071.70
2018-07-06T23:12:36.306Z,99077.60
2018-07-06T23:15:06.292Z,99076.09
2018-07-06T23:17:35.594Z,99072.55
2018-07-06T23:20:04.760Z,99071.20
2018-07-06T23:23:09.345Z,99068.05
2018-07-06T23:25:45.919Z,99065.70
2018-07-06T23:28:15.478Z,99064.19
2018-07-06T23:30:46.664Z,99069.78
2018-07-06T23:33:15.849Z,99070.11
2018-07-06T23:35:44.936Z,99064.55
2018-07-06T23:38:14.029Z,99063.50
2018-07-06T23:40:43.414Z,99061.83
2018-07-06T23:43:17.841Z,99065.39
2018-07-06T23:45:50.644Z,99070.62
2018-07-06T23:48:19.713Z,99074.13
2018-07-06T23:50:50.889Z,99075.14
2018-07-06T23:53:20.302Z,99084.08
2018-07-06T23:55:52.700Z,99089.30
2018-07-06T23:58:22.284Z,99082.05
